createdAt,value
2023-04-21T00:00:22.678Z,39.03
2023-04-21T00:05:25.791Z,38.58
2023-04-21T00:10:28.855Z,38.10
2023-04-21T00:15:33.112Z,37.85
2023-04-21T00:20:37.637Z,37.97
2023-04-21T00:25:40.521Z,38.67
2023-04-21T00:30:44.712Z,37.33
2023-04-21T00:35:47.683Z,37.75
2023-04-21T00:40:50.556Z,37.58
2023-04-21T00:45:54.724Z,37.33
2023-04-21T00:50:57.543Z,37.33
2023-04-21T00:56:00.383Z,36.83
2023-04-21T01:01:05.377Z,36.97
2023-04-21T01:06:08.752Z,37.17
2023-04-21T01:11:13.958Z,37.38
2023-04-21T01:16:19.801Z,37.33
2023-04-21T01:21:23.685Z,36.92
2023-04-21T01:26:27.884Z,36.80
2023-04-21T01:31:31.256Z,36.85
2023-04-21T01:36:34.204Z,36.95
2023-04-21T01:41:38.375Z,36.78
2023-04-21T01:46:41.256Z,37.00
2023-04-21T01:51:44.111Z,36.50
2023-04-21T01:56:48.371Z,37.67
2023-04-21T02:01:51.553Z,36.28
2023-04-21T02:06:54.433Z,36.35
2023-04-21T02:11:58.941Z,36.58
2023-04-21T02:17:03.572Z,36.38
2023-04-21T02:22:07.161Z,36.55
2023-04-21T02:27:11.343Z,36.28
2023-04-21T02:32:24.986Z,35.80
2023-04-21T02:37:34.488Z,36.42
2023-04-21T02:42:38.769Z,36.90
2023-04-21T02:47:41.753Z,37.22
2023-04-21T02:52:44.695Z,36.58
2023-04-21T02:57:48.941Z,38.08
2023-04-21T03:02:53.326Z,35.72
2023-04-21T03:07:56.449Z,37.05
2023-04-21T03:13:00.692Z,36.05
2023-04-21T03:18:03.626Z,36.17
2023-04-21T03:23:06.616Z,35.38
2023-04-21T03:28:10.991Z,35.47
2023-04-21T03:33:13.895Z,36.50
2023-04-21T03:38:17.055Z,36.35
2023-04-21T03:43:21.308Z,35.92
2023-04-21T03:48:24.230Z,37.65
2023-04-21T03:53:27.112Z,36.67
2023-04-21T03:58:31.424Z,47.15
2023-04-21T04:03:34.578Z,43.85
2023-04-21T04:08:37.879Z,39.20
2023-04-21T04:13:42.086Z,39.20
2023-04-21T04:18:45.729Z,36.80
2023-04-21T04:23:51.697Z,36.65
2023-04-21T04:28:56.476Z,35.78
2023-04-21T04:33:59.587Z,36.35
2023-04-21T04:39:02.504Z,35.92
2023-04-21T04:44:07.852Z,35.85
2023-04-21T04:49:10.981Z,36.40
2023-04-21T04:54:13.918Z,36.13
2023-04-21T04:59:18.125Z,36.17
2023-04-21T05:04:21.561Z,36.03
2023-04-21T05:09:24.793Z,38.47
2023-04-21T05:14:29.436Z,35.67
2023-04-21T05:19:32.324Z,35.83
2023-04-21T05:24:35.539Z,36.67
2023-04-21T05:29:39.757Z,36.10
2023-04-21T05:34:42.616Z,37.13
2023-04-21T05:39:45.976Z,36.63
2023-04-21T05:44:50.675Z,37.65
2023-04-21T05:49:53.940Z,37.70
2023-04-21T05:54:56.989Z,37.58
2023-04-21T06:00:01.233Z,36.72
2023-04-21T06:05:04.365Z,50.88
2023-04-21T06:10:08.765Z,64.20
2023-04-21T06:15:13.222Z,55.83
2023-04-21T06:20:17.721Z,39.92
2023-04-21T06:25:20.984Z,38.78
2023-04-21T06:30:25.285Z,39.78
2023-04-21T06:35:28.329Z,38.55
2023-04-21T06:40:31.273Z,38.03
2023-04-21T06:45:35.550Z,38.80
2023-04-21T06:50:38.473Z,40.88
2023-04-21T06:55:41.398Z,39.55
2023-04-21T07:00:45.634Z,39.75
2023-04-21T07:05:48.654Z,40.60
2023-04-21T07:10:51.545Z,41.50
2023-04-21T07:15:55.791Z,41.53
2023-04-21T07:20:58.733Z,39.90
2023-04-21T07:26:01.656Z,40.97
2023-04-21T07:31:06.158Z,40.58
2023-04-21T07:36:09.761Z,42.58
2023-04-21T07:41:13.167Z,40.95
2023-04-21T07:46:17.431Z,41.03
2023-04-21T07:51:20.649Z,43.50
2023-04-21T07:56:23.580Z,41.05
2023-04-21T08:01:27.818Z,41.70
2023-04-21T08:06:33.324Z,43.88
2023-04-21T08:11:36.418Z,41.33
2023-04-21T08:16:42.296Z,41.42
2023-04-21T08:21:45.546Z,41.75
2023-04-21T08:26:48.505Z,42.75
2023-04-21T08:31:52.831Z,42.67
2023-04-21T08:36:55.735Z,40.92
2023-04-21T08:42:00.218Z,40.92
2023-04-21T08:47:05.787Z,42.60
2023-04-21T08:52:08.820Z,43.20
2023-04-21T08:57:15.967Z,47.20
2023-04-21T09:02:21.016Z,42.78
2023-04-21T09:07:34.130Z,45.20
2023-04-21T09:12:40.775Z,45.63
2023-04-21T09:17:46.790Z,48.55
2023-04-21T09:22:51.205Z,43.67
2023-04-21T09:27:56.077Z,44.80
2023-04-21T09:33:02.368Z,43.10
2023-04-21T09:38:11.364Z,43.55
2023-04-21T09:43:14.285Z,44.88
2023-04-21T09:48:21.920Z,45.28
2023-04-21T09:53:27.507Z,44.78
2023-04-21T09:58:40.419Z,44.65
2023-04-21T10:03:46.752Z,45.38
2023-04-21T10:08:51.869Z,47.65
2023-04-21T10:13:55.011Z,44.53
2023-04-21T10:18:59.225Z,48.42
2023-04-21T10:24:02.144Z,44.95
2023-04-21T10:29:06.907Z,44.28
2023-04-21T10:34:22.695Z,44.83
2023-04-21T10:39:30.359Z,45.83
2023-04-21T10:44:33.263Z,44.53
2023-04-21T10:49:41.290Z,46.25
2023-04-21T10:54:46.443Z,44.53
2023-04-21T10:59:50.827Z,45.47
2023-04-21T11:04:56.314Z,45.28
2023-04-21T11:10:01.653Z,44.53
2023-04-21T11:15:07.433Z,42.58
2023-04-21T11:20:12.039Z,45.08
2023-04-21T11:25:19.103Z,43.78
2023-04-21T11:30:22.188Z,44.85
2023-04-21T11:35:26.484Z,43.20
2023-04-21T11:40:29.372Z,45.05
2023-04-21T11:45:32.264Z,43.50
2023-04-21T11:50:38.956Z,41.78
2023-04-21T11:55:43.870Z,42.22
2023-04-21T12:00:47.274Z,42.13
2023-04-21T12:05:57.706Z,42.60
2023-04-21T12:11:01.271Z,42.45
2023-04-21T12:16:04.783Z,42.38
2023-04-21T12:21:09.185Z,42.97
2023-04-21T12:26:12.429Z,40.28
2023-04-21T12:31:15.494Z,40.33
2023-04-21T12:36:19.750Z,42.33
2023-04-21T12:41:22.659Z,40.88
2023-04-21T12:46:25.672Z,42.22
2023-04-21T12:51:29.910Z,41.20
2023-04-21T12:56:32.828Z,41.33
2023-04-21T13:01:35.763Z,42.08
2023-04-21T13:06:41.090Z,42.38
2023-04-21T13:11:44.038Z,41.35
2023-04-21T13:16:47.487Z,44.30
2023-04-21T13:21:54.027Z,42.03
2023-04-21T13:26:57.302Z,40.97
2023-04-21T13:32:00.514Z,41.75
2023-04-21T13:37:05.803Z,41.05
2023-04-21T13:42:08.786Z,40.90
2023-04-21T13:47:11.766Z,41.15
2023-04-21T13:52:16.061Z,41.53
2023-04-21T13:57:26.007Z,40.85
2023-04-21T14:02:29.096Z,43.65
2023-04-21T14:07:33.665Z,45.58
2023-04-21T14:12:36.672Z,43.92
2023-04-21T14:17:39.716Z,44.67
2023-04-21T14:22:44.244Z,45.78
2023-04-21T14:27:47.274Z,46.13
2023-04-21T14:32:52.259Z,44.50
2023-04-21T14:37:56.663Z,48.92
2023-04-21T14:42:59.609Z,45.80
2023-04-21T14:48:02.669Z,42.83
2023-04-21T14:53:07.058Z,40.95
2023-04-21T14:58:09.965Z,40.13
2023-04-21T15:03:12.945Z,41.13
2023-04-21T15:08:18.358Z,40.67
2023-04-21T15:13:21.972Z,40.70
2023-04-21T15:18:24.908Z,42.53
2023-04-21T15:23:29.254Z,41.22
2023-04-21T15:28:32.599Z,42.47
2023-04-21T15:33:36.201Z,42.75
2023-04-21T15:38:40.521Z,41.08
2023-04-21T15:43:43.466Z,41.10
2023-04-21T15:48:46.420Z,40.85
2023-04-21T15:53:51.076Z,41.25
2023-04-21T15:58:54.047Z,42.63
2023-04-21T16:03:57.281Z,43.72
2023-04-21T16:09:01.599Z,41.00
2023-04-21T16:14:04.601Z,41.40
2023-04-21T16:19:07.570Z,41.28
2023-04-21T16:24:12.249Z,41.60
2023-04-21T16:29:15.167Z,42.33
2023-04-21T16:34:18.098Z,41.30
2023-04-21T16:39:22.317Z,41.88
2023-04-21T16:44:25.309Z,44.63
2023-04-21T16:49:30.211Z,42.88
2023-04-21T16:54:35.891Z,43.17
2023-04-21T16:59:39.167Z,41.53
2023-04-21T17:04:42.531Z,42.03
2023-04-21T17:09:46.845Z,41.95
2023-04-21T17:14:49.774Z,41.97
2023-04-21T17:19:54.125Z,42.13
2023-04-21T17:25:04.268Z,43.70
2023-04-21T17:30:09.198Z,42.33
2023-04-21T17:35:12.257Z,44.22
2023-04-21T17:40:16.519Z,41.28
2023-04-21T17:45:19.506Z,40.83
2023-04-21T17:50:22.994Z,40.53
2023-04-21T17:55:27.617Z,41.50
2023-04-21T18:00:34.478Z,40.75
2023-04-21T18:05:37.435Z,40.60
2023-04-21T18:10:41.929Z,41.55
2023-04-21T18:15:44.931Z,42.60
2023-04-21T18:20:49.025Z,42.17
2023-04-21T18:25:53.273Z,41.30
2023-04-21T18:30:56.252Z,41.45
2023-04-21T18:35:59.280Z,39.92
2023-04-21T18:41:03.830Z,40.60
2023-04-21T18:46:07.065Z,40.75
2023-04-21T18:51:09.998Z,40.58
2023-04-21T18:56:14.435Z,40.42
2023-04-21T19:01:18.797Z,40.33
2023-04-21T19:06:21.769Z,41.45
2023-04-21T19:11:26.069Z,40.65
2023-04-21T19:16:29.401Z,45.25
2023-04-21T19:21:33.118Z,41.42
2023-04-21T19:26:37.560Z,40.70
2023-04-21T19:31:40.669Z,41.15
2023-04-21T19:36:43.850Z,41.53
2023-04-21T19:41:48.202Z,40.05
2023-04-21T19:46:51.186Z,40.15
2023-04-21T19:51:54.095Z,41.10
2023-04-21T19:56:58.383Z,42.50
2023-04-21T20:02:01.982Z,40.60
2023-04-21T20:07:05.075Z,40.50
2023-04-21T20:12:09.574Z,45.67
2023-04-21T20:17:12.549Z,42.30
2023-04-21T20:22:15.493Z,40.63
2023-04-21T20:27:19.831Z,43.15
2023-04-21T20:32:22.839Z,42.00
2023-04-21T20:37:25.948Z,41.70
2023-04-21T20:42:30.226Z,41.38
2023-04-21T20:47:33.858Z,41.50
2023-04-21T20:52:36.787Z,40.78
2023-04-21T20:57:41.202Z,41.50
2023-04-21T21:02:44.399Z,41.53
2023-04-21T21:07:48.219Z,42.95
2023-04-21T21:12:52.541Z,40.15
2023-04-21T21:17:55.521Z,41.20
2023-04-21T21:22:58.452Z,40.42
2023-04-21T21:28:02.727Z,39.95
2023-04-21T21:33:05.707Z,40.78
2023-04-21T21:38:08.645Z,41.75
2023-04-21T21:43:12.866Z,41.28
2023-04-21T21:48:16.752Z,40.63
2023-04-21T21:53:19.787Z,41.50
2023-04-21T21:58:24.071Z,40.60
2023-04-21T22:03:27.257Z,40.33
2023-04-21T22:08:30.362Z,40.45
2023-04-21T22:13:34.703Z,41.40
2023-04-21T22:18:37.678Z,40.10
2023-04-21T22:23:40.577Z,39.85
2023-04-21T22:28:47.126Z,39.95
2023-04-21T22:33:50.046Z,41.38
2023-04-21T22:38:52.979Z,40.50
2023-04-21T22:43:57.226Z,39.83
2023-04-21T22:49:00.226Z,39.40
2023-04-21T22:54:03.368Z,39.42
2023-04-21T22:59:07.651Z,39.42
2023-04-21T23:04:10.691Z,39.63
2023-04-21T23:09:13.743Z,40.33
2023-04-21T23:14:18.034Z,39.80
2023-04-21T23:19:21.497Z,40.25
2023-04-21T23:24:24.473Z,40.35
2023-04-21T23:29:28.712Z,40.28
2023-04-21T23:34:31.676Z,39.85
2023-04-21T23:39:34.741Z,39.15
2023-04-21T23:44:40.312Z,39.45
2023-04-21T23:49:43.382Z,39.63
2023-04-21T23:54:46.356Z,41.15
2023-04-21T23:59:50.599Z,38.97
